createdAt,value
2018-05-19T00:02:00.008Z,11.90
2018-05-19T00:04:26.885Z,11.80
2018-05-19T00:06:54.496Z,11.60
2018-05-19T00:09:21.416Z,11.60
2018-05-19T00:11:48.393Z,11.60
2018-05-19T00:14:15.239Z,11.70
2018-05-19T00:16:42.150Z,11.60
2018-05-19T00:19:09.011Z,11.70
2018-05-19T00:21:35.929Z,11.70
2018-05-19T00:24:02.800Z,11.70
2018-05-19T00:26:29.725Z,11.70
2018-05-19T00:28:56.585Z,11.70
2018-05-19T00:31:23.524Z,11.60
2018-05-19T00:33:50.444Z,11.60
2018-05-19T00:36:17.292Z,11.60
2018-05-19T00:38:44.158Z,11.60
2018-05-19T00:41:11.076Z,11.70
2018-05-19T00:43:37.996Z,11.80
2018-05-19T00:46:04.860Z,11.90
2018-05-19T00:48:31.793Z,12.00
2018-05-19T00:50:58.650Z,12.00
2018-05-19T00:53:25.596Z,12.10
2018-05-19T00:55:52.511Z,12.20
2018-05-19T00:58:19.428Z,12.20
2018-05-19T01:00:46.362Z,12.20
2018-05-19T01:03:13.213Z,12.30
2018-05-19T01:05:40.124Z,12.20
2018-05-19T01:08:07.050Z,12.20
2018-05-19T01:10:33.917Z,12.20
2018-05-19T01:13:00.836Z,12.30
2018-05-19T01:15:27.767Z,12.30
2018-05-19T01:17:54.709Z,12.30
2018-05-19T01:20:21.564Z,12.20
2018-05-19T01:22:48.474Z,12.20
2018-05-19T01:25:15.342Z,12.20
2018-05-19T01:27:42.378Z,12.10
2018-05-19T01:30:09.238Z,12.10
2018-05-19T01:32:36.186Z,12.00
2018-05-19T01:35:03.049Z,12.00
2018-05-19T01:37:29.983Z,12.00
2018-05-19T01:39:56.854Z,11.90
2018-05-19T01:42:23.790Z,11.90
2018-05-19T01:44:50.652Z,11.90
2018-05-19T01:47:17.591Z,11.80
2018-05-19T01:49:44.456Z,11.70
2018-05-19T01:52:11.378Z,11.60
2018-05-19T01:54:38.248Z,11.60
2018-05-19T01:57:05.227Z,11.40
2018-05-19T01:59:32.145Z,11.30
2018-05-19T02:01:59.077Z,11.20
2018-05-19T02:04:26.687Z,11.20
2018-05-19T02:06:53.624Z,11.20
2018-05-19T02:09:20.468Z,11.20
2018-05-19T02:11:47.308Z,11.20
2018-05-19T02:14:14.229Z,11.20
2018-05-19T02:16:41.072Z,11.30
2018-05-19T02:19:07.992Z,11.30
2018-05-19T02:21:34.837Z,11.30
2018-05-19T02:24:01.757Z,11.20
2018-05-19T02:26:28.680Z,11.20
2018-05-19T02:28:55.629Z,11.10
2018-05-19T02:31:22.474Z,11.20
2018-05-19T02:33:49.316Z,11.20
2018-05-19T02:36:16.231Z,11.20
2018-05-19T02:38:43.145Z,11.10
2018-05-19T02:41:10.062Z,11.20
2018-05-19T02:43:36.918Z,11.20
2018-05-19T02:46:03.844Z,11.20
2018-05-19T02:48:30.686Z,11.20
2018-05-19T02:50:57.534Z,11.20
2018-05-19T02:53:24.450Z,11.20
2018-05-19T02:55:51.406Z,11.20
2018-05-19T02:58:18.288Z,11.10
2018-05-19T03:00:45.272Z,11.10
2018-05-19T03:03:12.202Z,11.10
2018-05-19T03:05:39.113Z,11.10
2018-05-19T03:08:05.977Z,11.10
2018-05-19T03:10:32.901Z,11.00
2018-05-19T03:12:59.811Z,11.00
2018-05-19T03:15:27.505Z,11.00
2018-05-19T03:17:54.506Z,10.90
2018-05-19T03:20:21.422Z,11.00
2018-05-19T03:22:48.276Z,10.90
2018-05-19T03:25:15.212Z,10.90
2018-05-19T03:27:42.077Z,10.90
2018-05-19T03:30:09.008Z,11.00
2018-05-19T03:32:35.872Z,11.00
2018-05-19T03:35:02.856Z,10.90
2018-05-19T03:37:29.716Z,10.90
2018-05-19T03:39:56.570Z,10.90
2018-05-19T03:42:23.507Z,10.90
2018-05-19T03:44:50.356Z,10.80
2018-05-19T03:47:17.288Z,10.90
2018-05-19T03:49:44.144Z,10.90
2018-05-19T03:52:11.073Z,10.90
2018-05-19T03:54:37.948Z,10.90
2018-05-19T03:57:16.930Z,10.90
2018-05-19T03:59:56.092Z,10.90
2018-05-19T04:02:29.148Z,10.90
2018-05-19T04:04:56.764Z,11.00
2018-05-19T04:07:23.611Z,11.00
2018-05-19T04:09:50.529Z,11.00
2018-05-19T04:12:17.384Z,11.10
2018-05-19T04:14:44.300Z,11.10
2018-05-19T04:17:11.209Z,11.10
2018-05-19T04:19:38.177Z,11.00
2018-05-19T04:22:05.782Z,11.00
2018-05-19T04:24:32.703Z,11.00
2018-05-19T04:26:59.561Z,11.00
2018-05-19T04:29:26.471Z,11.00
2018-05-19T04:31:53.329Z,11.00
2018-05-19T04:34:20.242Z,11.10
2018-05-19T04:36:47.101Z,11.10
2018-05-19T04:39:14.017Z,11.30
2018-05-19T04:41:40.909Z,11.40
2018-05-19T04:44:07.825Z,11.40
2018-05-19T04:46:34.665Z,11.50
2018-05-19T04:49:01.606Z,11.60
2018-05-19T04:51:28.450Z,11.80
2018-05-19T04:53:55.364Z,11.90
2018-05-19T04:56:22.273Z,12.10
2018-05-19T04:58:49.145Z,12.40
2018-05-19T05:01:16.080Z,12.90
2018-05-19T05:03:43.019Z,13.50
2018-05-19T05:06:09.990Z,13.70
2018-05-19T05:08:36.927Z,13.80
2018-05-19T05:11:03.843Z,13.50
2018-05-19T05:13:31.437Z,13.60
2018-05-19T05:15:58.393Z,13.50
2018-05-19T05:18:25.305Z,13.50
2018-05-19T05:20:52.269Z,13.40
2018-05-19T05:23:19.130Z,13.20
2018-05-19T05:25:46.047Z,13.60
2018-05-19T05:28:12.939Z,14.00
2018-05-19T05:30:39.864Z,13.70
2018-05-19T05:33:06.819Z,13.60
2018-05-19T05:35:33.748Z,13.70
2018-05-19T05:38:00.603Z,13.60
2018-05-19T05:40:27.453Z,13.50
2018-05-19T05:42:54.386Z,13.20
2018-05-19T05:45:21.326Z,13.20
2018-05-19T05:47:48.325Z,13.20
2018-05-19T05:50:15.217Z,13.20
2018-05-19T05:52:42.064Z,13.30
2018-05-19T05:55:08.993Z,13.60
2018-05-19T05:57:36.578Z,13.70
2018-05-19T06:00:03.528Z,13.70
2018-05-19T06:02:34.071Z,13.50
2018-05-19T06:05:00.928Z,13.50
2018-05-19T06:07:31.197Z,13.60
2018-05-19T06:10:01.517Z,13.50
2018-05-19T06:12:31.109Z,13.90
2018-05-19T06:14:58.004Z,14.10
2018-05-19T06:17:24.928Z,13.80
2018-05-19T06:19:52.610Z,13.80
2018-05-19T06:22:19.645Z,13.90
2018-05-19T06:24:48.377Z,13.80
2018-05-19T06:27:15.316Z,13.90
2018-05-19T06:29:42.349Z,14.00
2018-05-19T06:32:09.245Z,14.10
2018-05-19T06:34:37.201Z,14.30
2018-05-19T06:37:07.085Z,14.30
2018-05-19T06:39:35.669Z,14.50
2018-05-19T06:42:04.082Z,14.50
2018-05-19T06:44:31.706Z,14.60
2018-05-19T06:46:58.621Z,14.60
2018-05-19T06:49:27.937Z,14.90
2018-05-19T06:51:57.697Z,14.90
2018-05-19T06:54:26.283Z,14.80
2018-05-19T06:56:57.492Z,15.20
2018-05-19T06:59:25.708Z,15.00
2018-05-19T07:01:53.925Z,14.90
2018-05-19T07:04:34.282Z,14.90
2018-05-19T07:07:10.880Z,14.70
2018-05-19T07:09:50.689Z,15.10
2018-05-19T07:12:19.048Z,15.10
2018-05-19T07:17:43.495Z,15.60
2018-05-19T07:20:24.415Z,15.90
2018-05-19T07:23:03.486Z,15.70
2018-05-19T07:25:31.616Z,15.80
2018-05-19T07:27:59.558Z,15.90
2018-05-19T07:30:26.760Z,15.90
2018-05-19T07:32:53.675Z,15.90
2018-05-19T07:35:20.592Z,16.20
2018-05-19T07:37:49.283Z,16.70
2018-05-19T07:40:16.185Z,16.70
2018-05-19T07:42:43.919Z,16.90
2018-05-19T07:45:11.835Z,17.50
2018-05-19T07:47:44.117Z,17.70
2018-05-19T07:50:21.850Z,17.70
2018-05-19T07:52:59.207Z,17.70
2018-05-19T07:55:32.210Z,17.40
2018-05-19T07:58:07.173Z,17.40
2018-05-19T08:00:36.642Z,17.80
2018-05-19T08:03:05.669Z,18.30
2018-05-19T08:05:33.481Z,20.70
2018-05-19T08:08:00.417Z,23.50
2018-05-19T08:10:28.299Z,25.00
2018-05-19T08:12:56.601Z,26.50
2018-05-19T08:15:23.593Z,27.60
2018-05-19T08:17:51.118Z,29.30
2018-05-19T08:20:18.441Z,28.80
2018-05-19T08:22:45.365Z,28.10
2018-05-19T08:25:12.334Z,28.70
2018-05-19T08:27:39.461Z,28.80
2018-05-19T08:30:07.221Z,29.50
2018-05-19T08:32:34.114Z,29.50
2018-05-19T08:35:03.340Z,28.40
2018-05-19T08:37:30.573Z,28.70
2018-05-19T08:39:57.541Z,29.00
2018-05-19T08:42:24.692Z,28.20
2018-05-19T08:44:51.647Z,26.70
2018-05-19T08:47:19.658Z,26.70
2018-05-19T08:49:46.542Z,27.10
2018-05-19T08:52:16.054Z,26.80
2018-05-19T08:54:43.668Z,25.90
2018-05-19T08:57:10.634Z,26.10
2018-05-19T08:59:38.249Z,24.90
2018-05-19T09:02:06.674Z,24.80
2018-05-19T09:04:36.146Z,25.40
2018-05-19T09:07:03.066Z,25.40
2018-05-19T09:09:30.348Z,23.70
2018-05-19T09:11:57.361Z,23.90
2018-05-19T09:14:25.478Z,23.30
2018-05-19T09:16:52.493Z,23.40
2018-05-19T09:19:21.063Z,23.00
2018-05-19T09:21:51.669Z,21.60
2018-05-19T09:24:20.507Z,21.70
2018-05-19T09:26:48.107Z,22.00
2018-05-19T09:29:15.783Z,22.20
2018-05-19T09:31:42.721Z,22.10
2018-05-19T09:34:09.589Z,22.60
2018-05-19T09:36:40.987Z,22.30
2018-05-19T09:39:09.500Z,22.90
2018-05-19T09:41:36.498Z,22.90
2018-05-19T09:44:11.198Z,22.20
2018-05-19T09:46:38.417Z,22.80
2018-05-19T09:49:05.358Z,23.60
2018-05-19T09:51:38.544Z,23.50
2018-05-19T09:54:08.727Z,23.50
2018-05-19T09:56:35.583Z,22.60
2018-05-19T09:59:02.613Z,22.10
2018-05-19T10:01:33.331Z,22.20
2018-05-19T10:04:01.020Z,21.60
2018-05-19T10:06:34.884Z,21.60
2018-05-19T10:09:11.544Z,21.60
2018-05-19T10:11:45.272Z,21.90
2018-05-19T10:14:13.105Z,21.80
2018-05-19T10:16:43.090Z,22.00
2018-05-19T10:19:14.199Z,21.40
2018-05-19T10:21:41.603Z,21.20
2018-05-19T10:24:08.516Z,21.50
2018-05-19T10:26:42.285Z,20.90
2018-05-19T10:29:10.646Z,20.90
2018-05-19T10:31:37.630Z,20.80
2018-05-19T10:34:07.167Z,21.30
2018-05-19T10:36:41.387Z,21.70
2018-05-19T10:39:09.441Z,21.70
2018-05-19T10:41:38.541Z,22.20
2018-05-19T10:44:05.914Z,22.50
2018-05-19T10:46:36.737Z,22.60
2018-05-19T10:49:08.269Z,22.70
2018-05-19T10:51:39.986Z,22.80
2018-05-19T10:54:09.107Z,22.90
2018-05-19T10:56:43.616Z,22.90
2018-05-19T10:59:13.020Z,23.50
2018-05-19T11:01:44.114Z,23.20
2018-05-19T11:04:13.858Z,23.40
2018-05-19T11:06:41.501Z,23.30
2018-05-19T11:09:09.359Z,24.10
2018-05-19T11:11:38.844Z,23.70
2018-05-19T11:14:11.902Z,22.80
2018-05-19T11:16:46.494Z,21.80
2018-05-19T11:19:13.986Z,22.50
2018-05-19T11:21:45.104Z,22.90
2018-05-19T11:24:12.181Z,23.30
2018-05-19T11:26:41.530Z,23.10
2018-05-19T11:29:10.256Z,23.60
2018-05-19T11:31:46.250Z,23.60
2018-05-19T11:34:28.686Z,24.00
2018-05-19T11:37:01.081Z,24.10
2018-05-19T11:39:29.371Z,24.00
2018-05-19T11:41:58.641Z,23.50
2018-05-19T11:44:28.349Z,23.90
2018-05-19T11:46:57.034Z,23.90
2018-05-19T11:49:27.075Z,23.50
2018-05-19T11:51:55.538Z,23.30
2018-05-19T11:54:25.866Z,23.70
2018-05-19T11:56:59.383Z,23.70
2018-05-19T11:59:35.484Z,24.00
2018-05-19T12:02:05.736Z,23.80
2018-05-19T12:04:39.743Z,23.00
2018-05-19T12:07:16.237Z,23.40
2018-05-19T12:09:43.941Z,23.60
2018-05-19T12:12:12.591Z,23.50
2018-05-19T12:14:46.205Z,23.90
2018-05-19T12:17:14.036Z,24.00
2018-05-19T12:19:41.863Z,24.00
2018-05-19T12:22:08.809Z,24.00
2018-05-19T12:24:35.973Z,23.80
2018-05-19T12:27:05.188Z,23.40
2018-05-19T12:29:34.040Z,23.70
2018-05-19T12:32:01.155Z,23.80
2018-05-19T12:34:31.421Z,23.70
2018-05-19T12:36:59.069Z,23.70
2018-05-19T12:39:28.477Z,22.80
2018-05-19T12:41:55.644Z,22.50
2018-05-19T12:44:32.592Z,22.70
2018-05-19T12:47:02.096Z,23.00
2018-05-19T12:49:30.360Z,23.00
2018-05-19T12:51:57.487Z,23.00
2018-05-19T12:54:25.851Z,23.50
2018-05-19T12:56:52.889Z,22.20
2018-05-19T12:59:20.157Z,22.50
2018-05-19T13:01:48.693Z,22.40
2018-05-19T13:04:16.761Z,22.70
2018-05-19T13:06:44.449Z,22.90
2018-05-19T13:09:11.986Z,22.90
2018-05-19T13:11:39.262Z,22.70
2018-05-19T13:14:06.177Z,22.90
2018-05-19T13:16:35.272Z,22.60
2018-05-19T13:19:02.865Z,22.30
2018-05-19T13:21:30.194Z,22.20
2018-05-19T13:23:59.758Z,22.80
2018-05-19T13:26:26.700Z,22.70
2018-05-19T13:28:55.954Z,23.00
2018-05-19T13:31:23.400Z,23.30
2018-05-19T13:33:52.215Z,23.10
2018-05-19T13:36:19.108Z,23.20
2018-05-19T13:38:46.125Z,22.80
2018-05-19T13:41:13.005Z,23.10
2018-05-19T13:43:39.865Z,23.20
2018-05-19T13:46:08.505Z,22.50
2018-05-19T13:48:38.764Z,22.50
2018-05-19T13:51:10.802Z,23.10
2018-05-19T13:53:40.481Z,23.10
2018-05-19T13:56:07.605Z,22.80
2018-05-19T13:58:35.613Z,22.70
2018-05-19T14:01:05.852Z,22.70
2018-05-19T14:03:34.434Z,22.90
2018-05-19T14:06:01.569Z,23.00
2018-05-19T14:08:28.569Z,23.30
2018-05-19T14:10:56.242Z,23.30
2018-05-19T14:13:24.024Z,23.40
2018-05-19T14:15:51.364Z,23.40
2018-05-19T14:18:19.085Z,23.70
2018-05-19T14:20:45.934Z,23.70
2018-05-19T14:23:12.797Z,23.40
2018-05-19T14:25:39.725Z,23.70
2018-05-19T14:28:06.571Z,23.60
2018-05-19T14:30:33.492Z,23.50
2018-05-19T14:33:00.537Z,23.30
2018-05-19T14:35:27.451Z,23.40
2018-05-19T14:37:54.447Z,23.20
2018-05-19T14:40:21.418Z,23.10
2018-05-19T14:42:48.296Z,22.90
2018-05-19T14:45:15.188Z,22.90
2018-05-19T14:47:42.183Z,23.10
2018-05-19T14:50:09.053Z,23.10
2018-05-19T14:52:35.977Z,22.70
2018-05-19T14:55:02.935Z,22.80
2018-05-19T14:57:29.957Z,22.50
2018-05-19T14:59:57.670Z,22.10
2018-05-19T15:02:24.677Z,22.00
2018-05-19T15:04:52.323Z,22.30
2018-05-19T15:07:19.233Z,22.30
2018-05-19T15:09:46.177Z,22.20
2018-05-19T15:12:13.037Z,22.60
2018-05-19T15:14:39.901Z,22.60
2018-05-19T15:17:06.821Z,22.80
2018-05-19T15:19:33.721Z,22.80
2018-05-19T15:22:01.469Z,22.60
2018-05-19T15:24:29.078Z,22.70
2018-05-19T15:26:55.950Z,22.70
2018-05-19T15:29:22.873Z,22.50
2018-05-19T15:31:49.816Z,22.40
2018-05-19T15:34:16.697Z,22.30
2018-05-19T15:36:43.664Z,22.00
2018-05-19T15:39:10.580Z,22.10
2018-05-19T15:41:37.504Z,22.30
2018-05-19T15:44:04.438Z,22.30
2018-05-19T15:46:31.288Z,22.30
2018-05-19T15:48:58.162Z,22.40
2018-05-19T15:51:25.094Z,22.40
2018-05-19T15:53:52.025Z,22.30
2018-05-19T15:56:18.986Z,22.20
2018-05-19T15:58:45.841Z,22.10
2018-05-19T16:01:12.817Z,22.10
2018-05-19T16:03:40.488Z,22.00
2018-05-19T16:06:08.161Z,21.90
2018-05-19T16:08:35.009Z,21.90
2018-05-19T16:11:01.929Z,21.90
2018-05-19T16:13:29.604Z,22.00
2018-05-19T16:15:57.201Z,22.10
2018-05-19T16:18:24.124Z,22.10
2018-05-19T16:20:51.829Z,22.10
2018-05-19T16:23:18.766Z,22.10
2018-05-19T16:25:45.621Z,21.90
2018-05-19T16:28:12.540Z,21.90
2018-05-19T16:30:39.393Z,21.90
2018-05-19T16:33:06.324Z,21.90
2018-05-19T16:35:33.189Z,21.70
2018-05-19T16:38:00.033Z,21.90
2018-05-19T16:40:26.951Z,21.80
2018-05-19T16:42:53.821Z,21.70
2018-05-19T16:45:20.786Z,21.50
2018-05-19T16:47:47.761Z,21.50
2018-05-19T16:50:14.741Z,21.60
2018-05-19T16:52:42.240Z,21.60
2018-05-19T16:55:09.151Z,21.50
2018-05-19T16:57:36.173Z,21.10
2018-05-19T17:00:03.935Z,21.00
2018-05-19T17:02:31.525Z,21.10
2018-05-19T17:04:58.448Z,21.10
2018-05-19T17:07:26.079Z,21.20
2018-05-19T17:09:53.800Z,21.20
2018-05-19T17:12:20.683Z,21.20
2018-05-19T17:14:48.374Z,21.00
2018-05-19T17:17:17.108Z,20.90
2018-05-19T17:19:44.126Z,20.90
2018-05-19T17:22:11.054Z,20.90
2018-05-19T17:24:38.657Z,20.80
2018-05-19T17:27:05.598Z,20.80
2018-05-19T17:29:32.457Z,20.90
2018-05-19T17:31:59.428Z,20.70
2018-05-19T17:34:26.309Z,20.70
2018-05-19T17:36:53.270Z,20.50
2018-05-19T17:39:20.171Z,20.50
2018-05-19T17:41:47.124Z,20.30
2018-05-19T17:44:14.045Z,20.40
2018-05-19T17:46:40.913Z,20.40
2018-05-19T17:49:07.886Z,20.20
2018-05-19T17:51:35.643Z,20.10
2018-05-19T17:54:02.557Z,20.10
2018-05-19T17:56:29.429Z,20.00
2018-05-19T17:58:57.157Z,19.90
2018-05-19T18:01:24.076Z,19.90
2018-05-19T18:03:51.035Z,20.00
2018-05-19T18:06:17.911Z,19.90
2018-05-19T18:08:44.827Z,19.70
2018-05-19T18:11:11.737Z,19.60
2018-05-19T18:13:39.338Z,19.50
2018-05-19T18:16:06.285Z,19.50
2018-05-19T18:18:33.160Z,19.60
2018-05-19T18:21:00.065Z,19.30
2018-05-19T18:23:27.014Z,19.20
2018-05-19T18:25:53.925Z,19.10
2018-05-19T18:28:21.610Z,19.10
2018-05-19T18:30:48.486Z,19.00
2018-05-19T18:33:15.402Z,19.00
2018-05-19T18:35:42.327Z,18.90
2018-05-19T18:38:09.965Z,18.80
2018-05-19T18:40:36.841Z,18.80
2018-05-19T18:43:03.780Z,18.70
2018-05-19T18:45:30.625Z,18.60
2018-05-19T18:47:58.219Z,18.60
2018-05-19T18:50:25.158Z,18.60
2018-05-19T18:53:00.137Z,18.60
2018-05-19T18:55:27.100Z,18.50
2018-05-19T18:57:55.647Z,18.30
2018-05-19T19:00:22.604Z,18.30
2018-05-19T19:02:49.449Z,18.20
2018-05-19T19:05:16.447Z,18.20
2018-05-19T19:07:43.387Z,18.10
2018-05-19T19:10:10.240Z,18.00
2018-05-19T19:12:39.912Z,18.00
2018-05-19T19:15:07.503Z,17.90
2018-05-19T19:17:34.405Z,17.90
2018-05-19T19:20:01.327Z,17.90
2018-05-19T19:22:28.272Z,17.80
2018-05-19T19:24:56.786Z,17.70
2018-05-19T19:27:23.905Z,17.80
2018-05-19T19:29:50.867Z,17.70
2018-05-19T19:32:20.136Z,17.70
2018-05-19T19:34:47.348Z,17.60
2018-05-19T19:37:17.134Z,17.50
2018-05-19T19:39:44.138Z,17.40
2018-05-19T19:42:10.992Z,17.30
2018-05-19T19:44:37.964Z,17.30
2018-05-19T19:47:21.494Z,17.30
2018-05-19T19:50:01.054Z,17.20
2018-05-19T19:52:43.616Z,17.10
2018-05-19T19:55:25.370Z,17.10
2018-05-19T19:58:07.423Z,17.00
2018-05-19T20:00:48.847Z,17.00
2018-05-19T20:03:31.302Z,16.90
2018-05-19T20:06:14.349Z,16.90
2018-05-19T20:08:56.369Z,16.90
2018-05-19T20:11:34.785Z,16.70
2018-05-19T20:14:15.197Z,16.80
2018-05-19T20:16:57.578Z,16.70
2018-05-19T20:19:38.798Z,16.80
2018-05-19T20:22:20.623Z,16.70
2018-05-19T20:25:02.149Z,16.80
2018-05-19T20:27:43.544Z,16.70
2018-05-19T20:30:24.826Z,16.70
2018-05-19T20:33:06.357Z,16.60
2018-05-19T20:35:49.441Z,16.70
2018-05-19T20:38:33.130Z,16.50
2018-05-19T20:41:14.118Z,16.50
2018-05-19T20:43:57.394Z,16.50
2018-05-19T20:46:38.610Z,16.40
2018-05-19T20:49:21.219Z,16.40
2018-05-19T20:52:01.706Z,16.40
2018-05-19T20:54:29.741Z,16.40
2018-05-19T20:56:56.681Z,16.40
2018-05-19T20:59:23.799Z,16.40
2018-05-19T21:01:51.894Z,16.30
2018-05-19T21:04:19.109Z,16.30
2018-05-19T21:06:46.321Z,16.20
2018-05-19T21:09:13.384Z,16.30
2018-05-19T21:11:40.608Z,16.20
2018-05-19T21:14:07.948Z,16.20
2018-05-19T21:16:35.073Z,16.20
2018-05-19T21:19:02.328Z,16.10
2018-05-19T21:21:30.454Z,16.10
2018-05-19T21:23:58.210Z,16.10
2018-05-19T21:26:25.575Z,16.10
2018-05-19T21:28:52.510Z,16.10
2018-05-19T21:31:19.573Z,16.10
2018-05-19T21:33:46.735Z,16.10
2018-05-19T21:36:14.166Z,16.00
2018-05-19T21:38:41.329Z,16.00
2018-05-19T21:41:08.528Z,16.00
2018-05-19T21:43:35.707Z,16.00
2018-05-19T21:46:03.093Z,16.00
2018-05-19T21:48:32.327Z,15.90
2018-05-19T21:51:04.251Z,15.90
2018-05-19T21:53:32.500Z,15.90
2018-05-19T21:55:59.975Z,15.90
2018-05-19T21:58:27.769Z,15.90
2018-05-19T22:00:54.720Z,15.80
2018-05-19T22:03:21.646Z,15.70
2018-05-19T22:05:49.577Z,15.80
2018-05-19T22:08:16.629Z,15.80
2018-05-19T22:10:44.363Z,15.70
2018-05-19T22:13:12.165Z,15.80
2018-05-19T22:15:39.941Z,15.80
2018-05-19T22:18:06.888Z,15.80
2018-05-19T22:20:33.760Z,15.60
2018-05-19T22:23:01.722Z,15.70
2018-05-19T22:25:28.678Z,15.60
2018-05-19T22:27:55.553Z,15.60
2018-05-19T22:30:22.537Z,15.60
2018-05-19T22:32:49.473Z,15.50
2018-05-19T22:35:17.158Z,15.60
2018-05-19T22:37:44.842Z,15.50
2018-05-19T22:40:11.742Z,15.50
2018-05-19T22:42:39.471Z,15.40
2018-05-19T22:45:06.443Z,15.40
2018-05-19T22:47:33.395Z,15.30
2018-05-19T22:50:01.129Z,15.30
2018-05-19T22:52:28.052Z,15.30
2018-05-19T22:54:55.256Z,15.30
2018-05-19T22:57:22.273Z,15.30
2018-05-19T22:59:49.122Z,15.40
2018-05-19T23:02:16.643Z,15.30
2018-05-19T23:04:43.520Z,15.30
2018-05-19T23:07:10.465Z,15.30
2018-05-19T23:09:37.657Z,15.30
2018-05-19T23:12:04.693Z,15.30
2018-05-19T23:14:32.295Z,15.40
2018-05-19T23:16:59.168Z,15.40
2018-05-19T23:19:26.154Z,15.40
2018-05-19T23:21:53.806Z,15.30
2018-05-19T23:24:21.637Z,15.30
2018-05-19T23:26:48.546Z,15.30
2018-05-19T23:29:15.529Z,15.30
2018-05-19T23:31:42.407Z,15.40
2018-05-19T23:34:09.494Z,15.30
2018-05-19T23:36:36.429Z,15.30
2018-05-19T23:39:04.267Z,15.10
2018-05-19T23:41:32.133Z,15.10
2018-05-19T23:43:59.048Z,15.10
2018-05-19T23:46:25.960Z,15.00
2018-05-19T23:48:52.822Z,15.00
2018-05-19T23:51:19.777Z,15.10
2018-05-19T23:53:46.649Z,14.90
2018-05-19T23:56:13.517Z,15.00
2018-05-19T23:58:40.461Z,15.00
